Time;durP1;ratioP1;P1;durP2;ratioP2;P2;SDS_P1;SDS_P2;PMS_P1;PMS_P2;Temp;Humidity;BMP_temperature;BMP_pressure;BME280_temperature;BME280_humidity;BME280_pressure;Samples;Min_cycle;Max_cycle;Signal;HPM_P1;HPM_P2
2022/06/24 00:01:27;;;;;;;5.93;5.30;;;;;;;;;;5035014;28;20463;-59
2022/06/24 00:03:53;;;;;;;9.00;5.97;;;;;;;;;;5034552;28;20420;-59
2022/06/24 00:06:19;;;;;;;6.40;5.77;;;;;;;;;;5034423;28;20443;-59
2022/06/24 00:08:48;;;;;;;8.17;5.67;;;;;;;;;;5034388;28;20411;-59
2022/06/24 00:11:15;;;;;;;6.17;5.57;;;;;;;;;;5034037;28;20431;-59
2022/06/24 00:13:41;;;;;;;6.80;5.40;;;;;;;;;;5034315;28;20812;-59
2022/06/24 00:16:07;;;;;;;6.77;6.10;;;;;;;;;;5034338;28;20403;-59
2022/06/24 00:18:33;;;;;;;8.07;5.80;;;;;;;;;;5034123;28;20493;-59
2022/06/24 00:20:59;;;;;;;8.50;6.77;;;;;;;;;;5033667;28;20523;-59
2022/06/24 00:23:25;;;;;;;5.80;5.20;;;;;;;;;;5034251;28;20406;-59
2022/06/24 00:25:51;;;;;;;6.60;6.00;;;;;;;;;;5034100;28;20503;-59
2022/06/24 00:28:18;;;;;;;7.13;6.43;;;;;;;;;;5034046;28;20403;-60
2022/06/24 00:30:50;;;;;;;8.80;6.27;;;;;;;;;;5033666;28;20803;-59
2022/06/24 00:33:17;;;;;;;6.30;5.70;;;;;;;;;;5034009;28;20927;-59
2022/06/24 00:35:47;;;;;;;6.70;6.17;;;;;;;;;;5033865;28;20784;-58
2022/06/24 00:38:33;;;;;;;6.77;5.60;;;;;;;;;;5033944;28;20390;-58
2022/06/24 00:41:02;;;;;;;6.30;5.87;;;;;;;;;;5033509;28;20781;-59
2022/06/24 00:43:31;;;;;;;6.37;5.77;;;;;;;;;;5033815;28;20402;-59
2022/06/24 00:46:04;;;;;;;6.07;5.67;;;;;;;;;;5033663;28;20763;-59
2022/06/24 00:48:31;;;;;;;6.33;4.90;;;;;;;;;;5033801;28;20424;-59
2022/06/24 00:50:57;;;;;;;5.23;4.40;;;;;;;;;;5033225;28;20755;-58
2022/06/24 00:53:23;;;;;;;5.00;4.70;;;;;;;;;;5032616;28;21030;-59
2022/06/24 00:55:49;;;;;;;4.90;4.57;;;;;;;;;;5033614;28;20492;-58
2022/06/24 00:58:18;;;;;;;5.50;4.60;;;;;;;;;;5033583;28;20402;-58
2022/06/24 01:00:46;;;;;;;5.50;5.00;;;;;;;;;;5032600;28;20496;-60
2022/06/24 01:03:14;;;;;;;5.33;4.80;;;;;;;;;;5032915;28;20423;-60
2022/06/24 01:05:40;;;;;;;6.00;4.93;;;;;;;;;;5032742;28;20403;-59
2022/06/24 01:08:11;;;;;;;12.93;5.17;;;;;;;;;;5033267;28;20421;-58
2022/06/24 01:10:37;;;;;;;23.97;4.60;;;;;;;;;;5032910;28;20408;-59
2022/06/24 01:13:06;;;;;;;5.07;4.47;;;;;;;;;;5033026;28;20425;-58
2022/06/24 01:15:32;;;;;;;7.40;3.93;;;;;;;;;;5033140;28;20408;-59
2022/06/24 01:17:58;;;;;;;10.57;4.27;;;;;;;;;;5033150;28;20428;-59
2022/06/24 01:20:24;;;;;;;5.30;4.80;;;;;;;;;;5032669;28;20446;-58
2022/06/24 01:22:50;;;;;;;7.90;3.90;;;;;;;;;;5032998;28;20488;-58
2022/06/24 01:25:16;;;;;;;6.93;4.63;;;;;;;;;;5032933;28;20476;-58
2022/06/24 01:27:42;;;;;;;9.23;5.47;;;;;;;;;;5032851;28;20433;-58
2022/06/24 01:30:10;;;;;;;4.50;4.07;;;;;;;;;;5032618;28;21004;-58
2022/06/24 01:32:36;;;;;;;8.73;4.67;;;;;;;;;;5032818;28;20483;-59
2022/06/24 01:35:02;;;;;;;7.70;4.30;;;;;;;;;;5032900;28;20402;-59
2022/06/24 01:37:28;;;;;;;4.83;3.80;;;;;;;;;;5032860;28;20406;-58
2022/06/24 01:39:54;;;;;;;7.20;5.30;;;;;;;;;;5032525;28;20527;-58
2022/06/24 01:42:20;;;;;;;4.33;3.93;;;;;;;;;;5032292;28;20509;-58
2022/06/24 01:44:46;;;;;;;7.90;4.37;;;;;;;;;;5032747;28;20444;-58
2022/06/24 01:47:12;;;;;;;7.93;5.10;;;;;;;;;;5032594;28;20406;-58
2022/06/24 01:49:38;;;;;;;4.87;3.67;;;;;;;;;;5032275;28;20516;-58
2022/06/24 01:52:04;;;;;;;8.40;5.17;;;;;;;;;;5032400;28;20492;-57
2022/06/24 01:54:30;;;;;;;7.57;4.17;;;;;;;;;;5032496;28;20433;-58
2022/06/24 01:56:56;;;;;;;7.20;3.97;;;;;;;;;;5032217;28;20410;-58
2022/06/24 01:59:22;;;;;;;5.30;3.67;;;;;;;;;;5032141;28;20769;-58
2022/06/24 02:01:49;;;;;;;15.83;3.87;;;;;;;;;;5031751;28;20925;-58
2022/06/24 02:04:15;;;;;;;9.47;4.20;;;;;;;;;;5032105;28;20402;-58
2022/06/24 02:06:41;;;;;;;4.83;3.67;;;;;;;;;;5032240;28;20434;-58
2022/06/24 02:09:07;;;;;;;3.80;3.40;;;;;;;;;;5031080;28;20562;-58
2022/06/24 02:14:19;;;;;;;5.30;3.80;;;;;;;;;;5032481;28;20401;-59
2022/06/24 02:16:45;;;;;;;5.93;3.83;;;;;;;;;;5032038;28;20410;-59
2022/06/24 02:19:12;;;;;;;6.10;4.20;;;;;;;;;;5031974;28;20409;-58
2022/06/24 02:21:38;;;;;;;4.60;4.10;;;;;;;;;;5032082;28;20417;-58
2022/06/24 02:24:04;;;;;;;3.53;3.23;;;;;;;;;;5031964;28;20797;-58
2022/06/24 02:26:30;;;;;;;4.10;3.70;;;;;;;;;;5031847;28;20408;-57
2022/06/24 02:28:56;;;;;;;6.07;4.03;;;;;;;;;;5031932;28;20545;-59
2022/06/24 02:31:22;;;;;;;5.80;4.20;;;;;;;;;;5031507;28;20952;-59
2022/06/24 02:33:48;;;;;;;7.30;3.63;;;;;;;;;;5031861;28;20402;-59
2022/06/24 02:36:15;;;;;;;5.23;4.00;;;;;;;;;;5031808;28;20406;-58
2022/06/24 02:38:41;;;;;;;6.77;4.10;;;;;;;;;;5031909;28;20943;-58
2022/06/24 02:41:07;;;;;;;7.20;3.60;;;;;;;;;;5031448;28;20436;-59
2022/06/24 02:43:35;;;;;;;6.43;4.20;;;;;;;;;;5031881;28;20978;-58
2022/06/24 02:46:01;;;;;;;4.80;4.30;;;;;;;;;;5031786;28;20402;-58
2022/06/24 02:48:27;;;;;;;9.50;6.13;;;;;;;;;;5031915;28;20897;-59
2022/06/24 02:50:54;;;;;;;7.33;4.17;;;;;;;;;;5031330;28;20424;-59
2022/06/24 02:53:21;;;;;;;6.67;4.77;;;;;;;;;;5031694;28;20394;-58
2022/06/24 02:55:48;;;;;;;6.17;4.30;;;;;;;;;;5031812;28;20394;-59
2022/06/24 02:58:15;;;;;;;11.70;5.67;;;;;;;;;;5031720;28;20897;-59
2022/06/24 03:00:44;;;;;;;11.67;5.50;;;;;;;;;;5031235;28;20424;-58
2022/06/24 03:03:11;;;;;;;8.70;5.87;;;;;;;;;;5031569;28;20430;-58
2022/06/24 03:05:37;;;;;;;6.50;4.53;;;;;;;;;;5031530;28;20395;-58
2022/06/24 03:08:03;;;;;;;7.40;5.03;;;;;;;;;;5031624;28;20847;-58
2022/06/24 03:10:29;;;;;;;7.70;5.40;;;;;;;;;;5031179;28;20456;-58
2022/06/24 03:12:55;;;;;;;6.77;4.70;;;;;;;;;;5031417;28;20476;-59
2022/06/24 03:15:21;;;;;;;12.77;6.33;;;;;;;;;;5032236;28;20410;-59
2022/06/24 03:17:47;;;;;;;11.63;6.37;;;;;;;;;;5035352;28;20459;-58
2022/06/24 03:20:13;;;;;;;10.00;6.83;;;;;;;;;;5035084;28;20766;-58
2022/06/24 03:22:40;;;;;;;8.00;6.33;;;;;;;;;;5035182;28;20837;-58
2022/06/24 03:25:06;;;;;;;10.83;6.50;;;;;;;;;;5035294;28;20433;-59
2022/06/24 03:27:32;;;;;;;7.57;6.60;;;;;;;;;;5035203;28;20870;-58
2022/06/24 03:29:59;;;;;;;11.80;6.63;;;;;;;;;;5035086;28;20474;-59
2022/06/24 03:32:24;;;;;;;7.67;6.77;;;;;;;;;;5034716;28;20458;-58
2022/06/24 03:34:50;;;;;;;9.17;8.03;;;;;;;;;;5035161;28;20405;-58
2022/06/24 03:37:18;;;;;;;9.10;6.90;;;;;;;;;;5035266;28;20436;-58
2022/06/24 03:39:44;;;;;;;12.00;7.63;;;;;;;;;;5034955;28;20401;-58
2022/06/24 03:42:10;;;;;;;10.67;9.67;;;;;;;;;;5034738;28;20425;-58
2022/06/24 03:44:36;;;;;;;11.40;8.57;;;;;;;;;;5034835;28;20413;-58
2022/06/24 03:47:02;;;;;;;14.33;8.97;;;;;;;;;;5034781;28;20447;-59
2022/06/24 03:49:28;;;;;;;10.40;9.30;;;;;;;;;;5034722;28;20551;-58
2022/06/24 03:51:54;;;;;;;14.40;9.83;;;;;;;;;;5034505;28;20413;-58
2022/06/24 03:54:20;;;;;;;19.40;11.13;;;;;;;;;;5034677;28;20407;-58
2022/06/24 03:56:46;;;;;;;13.80;9.53;;;;;;;;;;5034636;28;20401;-58
2022/06/24 03:59:12;;;;;;;18.50;10.10;;;;;;;;;;5034931;28;20497;-58
2022/06/24 04:01:39;;;;;;;12.57;9.93;;;;;;;;;;5034117;28;20500;-58
2022/06/24 04:04:05;;;;;;;11.37;10.10;;;;;;;;;;5034606;28;20443;-58
2022/06/24 04:06:31;;;;;;;12.53;11.33;;;;;;;;;;5034554;28;20423;-58
2022/06/24 04:08:57;;;;;;;16.73;11.10;;;;;;;;;;5034363;28;20535;-58
2022/06/24 04:11:23;;;;;;;11.10;9.80;;;;;;;;;;5034115;28;20418;-58
2022/06/24 04:13:49;;;;;;;12.20;10.97;;;;;;;;;;5034309;28;20407;-58
2022/06/24 04:16:15;;;;;;;15.80;11.77;;;;;;;;;;5034530;28;20493;-58
2022/06/24 04:18:41;;;;;;;12.70;10.27;;;;;;;;;;5034261;28;20428;-58
2022/06/24 04:21:16;;;;;;;12.00;10.80;;;;;;;;;;5034005;28;20419;-58
2022/06/24 04:23:42;;;;;;;11.80;10.70;;;;;;;;;;5034134;28;20884;-58
2022/06/24 04:26:08;;;;;;;11.80;10.40;;;;;;;;;;5034243;28;20432;-58
2022/06/24 04:28:34;;;;;;;12.67;10.47;;;;;;;;;;5033950;28;20948;-58
2022/06/24 04:31:01;;;;;;;12.03;10.43;;;;;;;;;;5033806;28;20464;-58
2022/06/24 04:33:27;;;;;;;11.87;10.77;;;;;;;;;;5034007;28;20437;-57
2022/06/24 04:35:53;;;;;;;12.03;10.53;;;;;;;;;;5034315;28;20487;-58
2022/06/24 04:38:19;;;;;;;12.67;10.00;;;;;;;;;;5033843;28;20418;-57
2022/06/24 04:40:45;;;;;;;15.00;11.60;;;;;;;;;;5033941;28;20925;-58
2022/06/24 04:43:12;;;;;;;14.43;10.60;;;;;;;;;;5033775;28;20405;-57
2022/06/24 04:45:38;;;;;;;11.47;10.40;;;;;;;;;;5033794;28;20402;-57
2022/06/24 04:48:04;;;;;;;11.47;10.23;;;;;;;;;;5033733;28;20406;-58
2022/06/24 04:50:30;;;;;;;13.57;12.20;;;;;;;;;;5033384;28;20488;-57
2022/06/24 04:52:56;;;;;;;11.87;10.77;;;;;;;;;;5033551;28;20419;-58
2022/06/24 04:55:22;;;;;;;16.03;11.30;;;;;;;;;;5033684;28;20451;-57
2022/06/24 04:57:48;;;;;;;14.37;11.57;;;;;;;;;;5033942;28;20399;-57
2022/06/24 05:00:15;;;;;;;14.30;13.00;;;;;;;;;;5033474;28;20404;-57
2022/06/24 05:02:41;;;;;;;15.10;13.47;;;;;;;;;;5033313;28;20540;-57
2022/06/24 05:05:08;;;;;;;12.80;11.50;;;;;;;;;;5033413;28;20409;-57
2022/06/24 05:07:34;;;;;;;15.10;12.90;;;;;;;;;;5033414;28;20818;-57
2022/06/24 05:10:00;;;;;;;13.60;12.20;;;;;;;;;;5033075;28;20456;-58
2022/06/24 05:12:26;;;;;;;13.60;12.20;;;;;;;;;;5033278;28;20420;-57
2022/06/24 05:14:52;;;;;;;16.10;13.90;;;;;;;;;;5033224;28;20400;-57
2022/06/24 05:17:18;;;;;;;14.37;12.97;;;;;;;;;;5033312;28;20405;-57
2022/06/24 05:19:44;;;;;;;13.70;12.03;;;;;;;;;;5033093;28;20410;-56
2022/06/24 05:22:10;;;;;;;14.73;13.33;;;;;;;;;;5032894;28;20430;-58
2022/06/24 05:24:36;;;;;;;17.73;12.67;;;;;;;;;;5033025;28;20790;-57
2022/06/24 05:27:03;;;;;;;13.83;12.53;;;;;;;;;;5033053;28;20407;-57
2022/06/24 05:29:29;;;;;;;13.73;12.37;;;;;;;;;;5032864;28;20450;-58
2022/06/24 05:31:56;;;;;;;13.67;12.33;;;;;;;;;;5032619;28;20457;-57
2022/06/24 05:34:22;;;;;;;14.70;11.77;;;;;;;;;;5032816;28;20890;-57
2022/06/24 05:36:48;;;;;;;19.90;14.80;;;;;;;;;;5032800;28;20834;-57
2022/06/24 05:39:14;;;;;;;19.43;14.17;;;;;;;;;;5032095;28;20440;-57
2022/06/24 05:41:41;;;;;;;14.63;13.13;;;;;;;;;;5032443;28;20913;-57
2022/06/24 05:44:07;;;;;;;19.10;14.00;;;;;;;;;;5032658;28;20404;-57
2022/06/24 05:46:33;;;;;;;14.17;12.77;;;;;;;;;;5032649;28;20403;-57
2022/06/24 05:48:59;;;;;;;15.00;13.50;;;;;;;;;;5032554;28;20470;-57
2022/06/24 05:51:26;;;;;;;14.97;12.23;;;;;;;;;;5032332;28;20424;-57
2022/06/24 05:56:37;;;;;;;12.13;10.83;;;;;;;;;;5032296;28;20413;-57
2022/06/24 05:59:04;;;;;;;10.10;9.20;;;;;;;;;;5031948;28;20402;-58
2022/06/24 06:01:30;;;;;;;11.80;9.43;;;;;;;;;;5031339;28;20440;-57
2022/06/24 06:03:57;;;;;;;9.93;8.93;;;;;;;;;;5034709;28;20430;-56
2022/06/24 06:06:23;;;;;;;9.40;8.40;;;;;;;;;;5033357;28;20411;-56
2022/06/24 06:08:49;;;;;;;9.63;8.60;;;;;;;;;;5033615;28;20443;-54
2022/06/24 06:11:22;;;;;;;15.93;7.70;;;;;;;;;;5033632;28;20426;-55
2022/06/24 06:13:49;;;;;;;10.30;6.80;;;;;;;;;;5033553;28;21305;-56
2022/06/24 06:16:16;;;;;;;9.13;7.70;;;;;;;;;;5033603;28;20837;-54
2022/06/24 06:18:42;;;;;;;9.83;7.10;;;;;;;;;;5033259;28;20492;-54
2022/06/24 06:21:09;;;;;;;6.63;6.13;;;;;;;;;;5032826;28;21114;-54
2022/06/24 06:23:35;;;;;;;10.67;6.60;;;;;;;;;;5033869;28;20703;-54
2022/06/24 06:26:02;;;;;;;6.13;4.70;;;;;;;;;;5033650;28;20877;-56
2022/06/24 06:28:28;;;;;;;6.30;5.10;;;;;;;;;;5034062;28;20404;-54
2022/06/24 06:30:54;;;;;;;7.07;4.67;;;;;;;;;;5033037;28;20886;-54
2022/06/24 06:33:20;;;;;;;5.60;4.40;;;;;;;;;;5033196;28;20405;-54
2022/06/24 06:35:47;;;;;;;7.43;3.73;;;;;;;;;;5033068;28;20554;-55
2022/06/24 06:38:13;;;;;;;4.23;3.83;;;;;;;;;;5033348;28;20907;-55
2022/06/24 06:40:39;;;;;;;3.60;3.27;;;;;;;;;;5032204;28;20409;-54
2022/06/24 06:43:06;;;;;;;3.10;2.60;;;;;;;;;;5033416;28;20410;-54
2022/06/24 06:45:32;;;;;;;6.10;3.50;;;;;;;;;;5033897;28;20414;-54
2022/06/24 06:47:58;;;;;;;9.00;3.47;;;;;;;;;;5033661;28;20497;-54
2022/06/24 06:50:24;;;;;;;5.10;2.60;;;;;;;;;;5033766;28;20889;-54
2022/06/24 06:52:50;;;;;;;5.53;3.20;;;;;;;;;;5037205;28;20422;-54
2022/06/24 06:55:16;;;;;;;4.23;3.10;;;;;;;;;;5037138;28;20429;-54
2022/06/24 06:57:42;;;;;;;3.67;2.87;;;;;;;;;;5037023;28;20426;-56
2022/06/24 07:00:12;;;;;;;4.87;3.07;;;;;;;;;;5036754;28;20402;-55
2022/06/24 07:02:38;;;;;;;2.60;2.17;;;;;;;;;;5036283;28;20453;-55
2022/06/24 07:05:04;;;;;;;3.50;2.87;;;;;;;;;;5036213;28;20788;-54
2022/06/24 07:07:30;;;;;;;4.63;2.20;;;;;;;;;;5036531;28;20402;-56
2022/06/24 07:09:59;;;;;;;5.53;4.37;;;;;;;;;;5036111;28;20901;-57
2022/06/24 07:12:26;;;;;;;5.50;2.63;;;;;;;;;;5036383;28;20437;-54
2022/06/24 07:14:52;;;;;;;3.20;1.90;;;;;;;;;;5036330;28;20402;-55
2022/06/24 07:17:18;;;;;;;3.90;2.10;;;;;;;;;;5036092;28;20905;-56
2022/06/24 07:19:44;;;;;;;3.23;1.97;;;;;;;;;;5036207;28;20406;-55
2022/06/24 07:22:10;;;;;;;3.27;2.27;;;;;;;;;;5035947;28;20440;-54
2022/06/24 07:24:36;;;;;;;1.97;1.80;;;;;;;;;;5036341;28;20421;-55
2022/06/24 07:27:03;;;;;;;6.17;2.00;;;;;;;;;;5035887;28;20409;-54
2022/06/24 07:29:33;;;;;;;3.30;2.30;;;;;;;;;;5036252;28;20484;-56
2022/06/24 07:31:59;;;;;;;2.80;2.07;;;;;;;;;;5035846;28;20433;-55
2022/06/24 07:34:26;;;;;;;2.27;2.10;;;;;;;;;;5035860;28;20398;-54
2022/06/24 07:36:52;;;;;;;3.17;2.07;;;;;;;;;;5035892;28;20406;-55
2022/06/24 07:39:18;;;;;;;5.10;1.90;;;;;;;;;;5035434;28;20406;-55
2022/06/24 07:41:44;;;;;;;2.20;2.00;;;;;;;;;;5035198;28;20414;-54
2022/06/24 07:44:10;;;;;;;2.30;2.10;;;;;;;;;;5035800;28;20406;-56
2022/06/24 07:46:36;;;;;;;6.00;2.23;;;;;;;;;;5035792;28;20404;-54
2022/06/24 07:49:02;;;;;;;2.00;1.80;;;;;;;;;;5035251;28;20453;-54
2022/06/24 07:51:28;;;;;;;2.43;2.20;;;;;;;;;;5034964;28;20906;-54
2022/06/24 07:53:54;;;;;;;3.83;2.13;;;;;;;;;;5035338;28;20474;-54
2022/06/24 07:59:05;;;;;;;3.53;1.93;;;;;;;;;;5035424;28;20531;-55
2022/06/24 08:01:31;;;;;;;5.10;2.20;;;;;;;;;;5033597;28;20441;-54
2022/06/24 08:03:58;;;;;;;7.33;2.50;;;;;;;;;;5034970;28;20485;-54
2022/06/24 08:06:24;;;;;;;3.10;2.30;;;;;;;;;;5034858;28;20404;-54
2022/06/24 08:08:50;;;;;;;4.43;2.77;;;;;;;;;;5034576;28;20408;-57
2022/06/24 08:11:16;;;;;;;8.53;2.60;;;;;;;;;;5034321;28;20506;-54
2022/06/24 08:13:42;;;;;;;3.10;2.07;;;;;;;;;;5034617;28;20404;-54
2022/06/24 08:16:08;;;;;;;8.10;2.10;;;;;;;;;;5034891;28;20400;-55
2022/06/24 08:18:34;;;;;;;2.87;2.50;;;;;;;;;;5034666;28;20397;-55
2022/06/24 08:21:00;;;;;;;1.90;1.60;;;;;;;;;;5034278;28;20931;-55
2022/06/24 08:23:26;;;;;;;3.17;2.00;;;;;;;;;;5034374;28;20492;-54
2022/06/24 08:25:52;;;;;;;2.27;2.07;;;;;;;;;;5034213;28;20938;-55
2022/06/24 08:28:18;;;;;;;3.63;2.27;;;;;;;;;;5034253;28;20406;-56
2022/06/24 08:30:44;;;;;;;3.77;2.20;;;;;;;;;;5033783;28;20457;-55
2022/06/24 08:33:10;;;;;;;3.23;2.20;;;;;;;;;;5034152;28;20788;-55
2022/06/24 08:35:37;;;;;;;4.57;2.30;;;;;;;;;;5034129;28;20398;-56
2022/06/24 08:38:03;;;;;;;8.80;2.63;;;;;;;;;;5034159;28;20405;-54
2022/06/24 08:40:29;;;;;;;5.30;2.30;;;;;;;;;;5037930;28;20418;-55
2022/06/24 08:42:57;;;;;;;2.37;2.17;;;;;;;;;;5033760;28;20969;-54
2022/06/24 08:45:23;;;;;;;3.77;2.40;;;;;;;;;;5034162;28;20437;-54
2022/06/24 08:47:50;;;;;;;3.13;2.87;;;;;;;;;;5033861;28;20410;-55
2022/06/24 08:50:16;;;;;;;3.63;2.87;;;;;;;;;;5033646;28;20547;-55
2022/06/24 08:52:50;;;;;;;3.40;3.10;;;;;;;;;;5033668;28;20767;-54
2022/06/24 08:55:16;;;;;;;4.17;3.20;;;;;;;;;;5033767;28;20398;-55
2022/06/24 08:57:42;;;;;;;4.57;2.93;;;;;;;;;;5033444;28;20947;-54
2022/06/24 09:00:09;;;;;;;2.90;2.63;;;;;;;;;;5033512;28;20402;-55
2022/06/24 09:02:35;;;;;;;5.03;2.33;;;;;;;;;;5033714;28;20458;-54
2022/06/24 09:05:07;;;;;;;5.73;2.57;;;;;;;;;;5033600;28;20417;-55
2022/06/24 09:07:33;;;;;;;3.23;2.93;;;;;;;;;;5033673;28;20481;-55
2022/06/24 09:10:10;;;;;;;2.83;2.63;;;;;;;;;;5033444;28;20879;-54
2022/06/24 09:12:38;;;;;;;2.83;2.47;;;;;;;;;;5032977;28;20437;-54
2022/06/24 09:15:05;;;;;;;2.83;2.63;;;;;;;;;;5033144;28;20401;-54
2022/06/24 09:17:32;;;;;;;4.33;3.03;;;;;;;;;;5033349;28;20490;-54
2022/06/24 09:20:10;;;;;;;2.70;2.50;;;;;;;;;;5033424;28;20399;-54
2022/06/24 09:22:37;;;;;;;2.70;2.50;;;;;;;;;;5033227;28;20473;-55
2022/06/24 09:25:03;;;;;;;2.90;2.47;;;;;;;;;;5033409;28;20402;-55
2022/06/24 09:27:30;;;;;;;2.87;2.50;;;;;;;;;;5033317;28;20404;-54
2022/06/24 09:29:56;;;;;;;2.27;2.10;;;;;;;;;;5033411;28;20454;-54
2022/06/24 09:32:22;;;;;;;9.00;2.83;;;;;;;;;;5033446;28;20553;-53
2022/06/24 09:35:02;;;;;;;4.80;3.10;;;;;;;;;;5033488;28;20900;-54
2022/06/24 09:37:44;;;;;;;5.63;3.43;;;;;;;;;;5033895;28;20766;-54
2022/06/24 09:40:21;;;;;;;4.33;3.93;;;;;;;;;;5035852;28;20439;-60
2022/06/24 09:42:56;;;;;;;4.00;3.53;;;;;;;;;;5035838;28;20988;-55
2022/06/24 09:45:23;;;;;;;3.83;3.53;;;;;;;;;;5035451;28;20409;-57
2022/06/24 09:47:49;;;;;;;9.63;5.27;;;;;;;;;;5035474;28;20410;-56
2022/06/24 09:50:16;;;;;;;6.80;5.10;;;;;;;;;;5033879;28;20534;-56
2022/06/24 09:52:43;;;;;;;7.23;5.13;;;;;;;;;;5040763;28;20434;-57
2022/06/24 09:55:12;;;;;;;5.63;5.03;;;;;;;;;;5036934;28;20397;-56
2022/06/24 09:57:39;;;;;;;6.60;5.37;;;;;;;;;;5035692;28;20410;-55
2022/06/24 10:02:51;;;;;;;10.77;7.73;;;;;;;;;;5038026;28;20488;-57
2022/06/24 10:05:19;;;;;;;9.67;8.17;;;;;;;;;;5034704;28;20527;-56
2022/06/24 10:07:48;;;;;;;9.87;7.87;;;;;;;;;;5036121;28;20633;-55
2022/06/24 10:10:16;;;;;;;11.83;7.30;;;;;;;;;;5032852;28;20901;-56
2022/06/24 10:12:46;;;;;;;11.40;7.53;;;;;;;;;;5034290;28;20427;-55
2022/06/24 10:15:13;;;;;;;8.73;7.17;;;;;;;;;;5033613;28;20414;-57
2022/06/24 10:17:40;;;;;;;10.50;7.00;;;;;;;;;;5034422;28;20891;-55
2022/06/24 10:20:07;;;;;;;8.80;7.00;;;;;;;;;;5034393;28;20926;-55
2022/06/24 10:22:36;;;;;;;8.60;7.53;;;;;;;;;;5034184;28;20422;-57
2022/06/24 10:25:02;;;;;;;6.43;5.70;;;;;;;;;;5034357;28;20431;-58
2022/06/24 10:27:47;;;;;;;9.50;5.20;;;;;;;;;;5034508;28;20889;-56
2022/06/24 10:30:13;;;;;;;7.00;4.30;;;;;;;;;;5034222;28;20465;-57
2022/06/24 10:32:58;;;;;;;3.80;3.50;;;;;;;;;;5034538;28;20760;-57
2022/06/24 10:35:24;;;;;;;3.97;3.67;;;;;;;;;;5034627;28;20405;-56
2022/06/24 10:37:51;;;;;;;5.50;5.00;;;;;;;;;;5034601;28;20430;-56
2022/06/24 10:40:28;;;;;;;5.70;5.20;;;;;;;;;;5034684;28;20416;-56
2022/06/24 10:43:06;;;;;;;5.80;5.30;;;;;;;;;;5033958;28;20432;-56
2022/06/24 10:45:37;;;;;;;5.70;5.20;;;;;;;;;;5033927;28;20893;-58
2022/06/24 10:48:03;;;;;;;4.80;4.40;;;;;;;;;;5033707;28;20536;-57
2022/06/24 10:50:29;;;;;;;4.93;4.47;;;;;;;;;;5033192;28;20950;-57
2022/06/24 10:52:56;;;;;;;4.70;4.30;;;;;;;;;;5033445;28;20410;-57
2022/06/24 10:55:28;;;;;;;3.50;3.30;;;;;;;;;;5034100;28;20489;-57
2022/06/24 10:57:55;;;;;;;4.97;3.50;;;;;;;;;;5033285;28;20405;-57
2022/06/24 11:00:22;;;;;;;4.53;3.90;;;;;;;;;;5032938;28;20407;-59
2022/06/24 11:03:14;;;;;;;9.17;3.40;;;;;;;;;;5033207;28;20441;-56
2022/06/24 11:05:41;;;;;;;3.20;3.00;;;;;;;;;;5030757;28;20454;-57
2022/06/24 11:08:12;;;;;;;3.37;2.80;;;;;;;;;;5033288;28;20410;-57
2022/06/24 11:10:38;;;;;;;4.03;2.70;;;;;;;;;;5032291;28;20544;-57
2022/06/24 11:13:04;;;;;;;3.03;2.83;;;;;;;;;;5032605;28;20453;-58
2022/06/24 11:15:49;;;;;;;2.73;2.07;;;;;;;;;;5032694;28;20406;-57
2022/06/24 11:18:18;;;;;;;7.23;2.60;;;;;;;;;;5032268;28;20902;-56
2022/06/24 11:20:49;;;;;;;2.67;2.47;;;;;;;;;;5031851;28;20760;-58
2022/06/24 11:23:17;;;;;;;3.43;2.20;;;;;;;;;;5031823;28;20409;-57
2022/06/24 11:25:51;;;;;;;2.50;2.30;;;;;;;;;;5032354;28;20413;-56
2022/06/24 11:28:40;;;;;;;8.70;2.50;;;;;;;;;;5031942;28;20406;-56
2022/06/24 11:31:17;;;;;;;2.50;2.33;;;;;;;;;;5028702;28;20477;-56
2022/06/24 11:33:43;;;;;;;3.80;3.50;;;;;;;;;;5031952;28;20782;-56
2022/06/24 11:36:09;;;;;;;4.57;3.40;;;;;;;;;;5032089;28;20440;-55
2022/06/24 11:38:52;;;;;;;4.20;3.90;;;;;;;;;;5035723;28;20505;-55
2022/06/24 11:41:28;;;;;;;6.43;4.40;;;;;;;;;;5035330;28;20794;-57
2022/06/24 11:43:54;;;;;;;6.40;5.63;;;;;;;;;;5035549;28;20809;-56
2022/06/24 11:46:20;;;;;;;6.40;5.63;;;;;;;;;;5035552;28;20774;-57
2022/06/24 11:48:46;;;;;;;6.00;5.40;;;;;;;;;;5035403;28;20406;-57
2022/06/24 11:51:19;;;;;;;8.87;6.90;;;;;;;;;;5034717;28;20442;-57
2022/06/24 11:53:56;;;;;;;6.03;4.97;;;;;;;;;;5035020;28;20410;-56
2022/06/24 11:56:22;;;;;;;5.60;5.07;;;;;;;;;;5034732;28;20520;-57
2022/06/24 11:58:48;;;;;;;6.40;5.90;;;;;;;;;;5034661;28;20437;-55
2022/06/24 12:01:14;;;;;;;5.70;5.20;;;;;;;;;;5034551;28;20441;-56
2022/06/24 12:03:40;;;;;;;7.37;6.10;;;;;;;;;;5035078;28;20401;-55
2022/06/24 12:06:06;;;;;;;6.30;5.53;;;;;;;;;;5034915;28;20497;-55
2022/06/24 12:08:32;;;;;;;6.97;5.80;;;;;;;;;;5034973;28;20421;-55
2022/06/24 12:10:58;;;;;;;6.33;5.80;;;;;;;;;;5034183;28;20535;-57
2022/06/24 12:13:25;;;;;;;6.63;6.03;;;;;;;;;;5034540;28;20897;-56
2022/06/24 12:15:52;;;;;;;6.00;5.60;;;;;;;;;;5034742;28;20399;-55
2022/06/24 12:18:22;;;;;;;6.17;5.43;;;;;;;;;;5034456;28;20394;-56
2022/06/24 12:20:57;;;;;;;6.33;5.83;;;;;;;;;;5034231;28;20402;-55
2022/06/24 12:23:23;;;;;;;6.73;6.13;;;;;;;;;;5034466;28;20428;-56
2022/06/24 12:25:51;;;;;;;4.97;4.67;;;;;;;;;;5034410;28;20402;-55
2022/06/24 12:28:17;;;;;;;3.90;3.60;;;;;;;;;;5034255;28;20878;-56
2022/06/24 12:30:44;;;;;;;3.80;3.50;;;;;;;;;;5033803;28;20458;-55
2022/06/24 12:33:17;;;;;;;3.93;3.50;;;;;;;;;;5034251;28;20402;-54
2022/06/24 12:35:43;;;;;;;3.33;3.13;;;;;;;;;;5034224;28;20394;-54
2022/06/24 12:38:13;;;;;;;3.23;3.07;;;;;;;;;;5032948;28;20651;-54
2022/06/24 12:40:42;;;;;;;3.80;3.53;;;;;;;;;;5033803;28;20485;-54
2022/06/24 12:43:09;;;;;;;3.50;2.93;;;;;;;;;;5033739;28;20410;-53
2022/06/24 12:45:38;;;;;;;3.50;3.30;;;;;;;;;;5034059;28;20496;-53
2022/06/24 12:50:58;;;;;;;3.33;3.03;;;;;;;;;;5033419;28;20553;-55
2022/06/24 12:53:24;;;;;;;3.67;3.47;;;;;;;;;;5033669;28;20889;-56
2022/06/24 12:55:49;;;;;;;3.00;2.60;;;;;;;;;;5033624;28;20401;-57
2022/06/24 12:58:16;;;;;;;2.80;2.57;;;;;;;;;;5033498;28;20406;-55
2022/06/24 13:00:42;;;;;;;3.20;3.00;;;;;;;;;;5033087;28;20768;-58
2022/06/24 13:03:08;;;;;;;3.60;2.33;;;;;;;;;;5033423;28;20479;-55
2022/06/24 13:05:34;;;;;;;3.10;2.77;;;;;;;;;;5034096;28;20414;-55
2022/06/24 13:08:00;;;;;;;6.23;2.70;;;;;;;;;;5034392;28;20402;-55
2022/06/24 13:10:26;;;;;;;2.30;2.20;;;;;;;;;;5033970;28;20468;-55
2022/06/24 13:12:52;;;;;;;2.47;2.30;;;;;;;;;;5033963;28;20484;-56
2022/06/24 13:15:18;;;;;;;2.70;2.60;;;;;;;;;;5034099;28;20407;-55
2022/06/24 13:17:44;;;;;;;2.27;2.17;;;;;;;;;;5033990;28;20398;-55
2022/06/24 13:20:11;;;;;;;2.63;2.40;;;;;;;;;;5033180;28;20753;-55
2022/06/24 13:22:38;;;;;;;2.90;2.50;;;;;;;;;;5033050;28;20721;-55
2022/06/24 13:25:05;;;;;;;3.37;3.17;;;;;;;;;;5033089;28;20441;-55
2022/06/24 13:27:31;;;;;;;3.53;3.13;;;;;;;;;;5032952;28;20455;-55
2022/06/24 13:29:58;;;;;;;3.50;3.00;;;;;;;;;;5032809;28;20467;-56
2022/06/24 13:32:24;;;;;;;4.13;3.10;;;;;;;;;;5032920;28;20487;-54
2022/06/24 13:34:50;;;;;;;6.23;2.70;;;;;;;;;;5033259;28;20525;-55
2022/06/24 13:37:16;;;;;;;3.10;2.47;;;;;;;;;;5033070;28;20410;-56
2022/06/24 13:39:42;;;;;;;6.13;2.77;;;;;;;;;;5032814;28;20430;-55
2022/06/24 13:42:08;;;;;;;2.77;2.57;;;;;;;;;;5032635;28;20952;-56
2022/06/24 13:44:35;;;;;;;4.23;2.57;;;;;;;;;;5032701;28;20475;-58
2022/06/24 13:47:02;;;;;;;2.70;2.50;;;;;;;;;;5032484;28;20489;-55
2022/06/24 13:49:27;;;;;;;2.90;2.60;;;;;;;;;;5032503;28;20965;-55
2022/06/24 13:51:53;;;;;;;2.93;2.73;;;;;;;;;;5032657;28;20425;-56
2022/06/24 13:54:19;;;;;;;2.73;2.63;;;;;;;;;;5033456;28;20398;-55
2022/06/24 13:56:45;;;;;;;4.13;2.47;;;;;;;;;;5033094;28;20763;-56
2022/06/24 13:59:14;;;;;;;3.20;2.93;;;;;;;;;;5032554;28;20448;-55
2022/06/24 14:01:40;;;;;;;2.73;2.53;;;;;;;;;;5032728;28;20968;-54
2022/06/24 14:04:06;;;;;;;5.00;2.70;;;;;;;;;;5032778;28;20402;-55
2022/06/24 14:06:32;;;;;;;3.70;3.20;;;;;;;;;;5033168;28;20409;-55
2022/06/24 14:08:58;;;;;;;3.40;2.70;;;;;;;;;;5032943;28;20460;-55
2022/06/24 14:11:24;;;;;;;5.90;2.60;;;;;;;;;;5032610;28;20401;-55
2022/06/24 14:13:50;;;;;;;2.93;2.63;;;;;;;;;;5033016;28;20976;-56
2022/06/24 14:16:16;;;;;;;5.73;2.33;;;;;;;;;;5033182;28;20430;-57
2022/06/24 14:18:42;;;;;;;2.80;2.60;;;;;;;;;;5032840;28;20394;-55
2022/06/24 14:21:08;;;;;;;3.60;2.50;;;;;;;;;;5032680;28;20211;-54
2022/06/24 14:26:22;;;;;;;4.53;3.03;;;;;;;;;;5031968;28;20409;-57
2022/06/24 14:28:51;;;;;;;2.60;2.43;;;;;;;;;;5031667;28;20398;-55
2022/06/24 14:31:17;;;;;;;3.00;2.90;;;;;;;;;;5031447;28;20539;-55
2022/06/24 14:33:43;;;;;;;2.87;2.67;;;;;;;;;;5031744;28;20497;-54
2022/06/24 14:36:09;;;;;;;2.77;2.47;;;;;;;;;;5031713;28;20399;-55
2022/06/24 14:41:20;;;;;;;4.03;2.93;;;;;;;;;;5031436;28;20480;-54
2022/06/24 14:43:46;;;;;;;3.30;3.10;;;;;;;;;;5031776;28;20421;-55
2022/06/24 14:46:12;;;;;;;4.63;4.00;;;;;;;;;;5031671;28;20403;-55
2022/06/24 14:48:38;;;;;;;2.90;2.80;;;;;;;;;;5031724;28;20555;-56
2022/06/24 14:51:04;;;;;;;3.70;3.23;;;;;;;;;;5031507;28;20458;-55
2022/06/24 14:53:30;;;;;;;3.83;3.60;;;;;;;;;;5031929;28;20892;-55
2022/06/24 14:55:56;;;;;;;3.70;3.40;;;;;;;;;;5031614;28;20481;-56
2022/06/24 14:58:22;;;;;;;3.83;3.53;;;;;;;;;;5031620;28;20394;-57